Time;durP1;ratioP1;P1;durP2;ratioP2;P2;SDS_P1;SDS_P2;PMS_P1;PMS_P2;Temp;Humidity;BMP_temperature;BMP_pressure;BME280_temperature;BME280_humidity;BME280_pressure;Samples;Min_cycle;Max_cycle;Signal;HPM_P1;HPM_P2
2022/06/13 00:01:51;;;;;;;11.95;3.90;;;14.80;99.90;;;;;;5033857;28;20090;-68
2022/06/13 00:04:17;;;;;;;11.00;4.60;;;15.50;99.90;;;;;;5033955;28;20048;-69
2022/06/13 00:06:43;;;;;;;14.18;4.47;;;15.30;99.90;;;;;;5033446;28;20564;-68
2022/06/13 00:09:09;;;;;;;11.20;5.07;;;14.80;99.90;;;;;;5050754;28;20037;-68
2022/06/13 00:11:35;;;;;;;9.85;4.10;;;14.80;99.90;;;;;;5033562;28;20113;-68
2022/06/13 00:14:02;;;;;;;12.68;4.03;;;14.70;99.90;;;;;;5051526;28;20056;-68
2022/06/13 00:16:28;;;;;;;13.27;5.00;;;14.90;99.90;;;;;;5033467;28;20056;-68
2022/06/13 00:18:54;;;;;;;17.00;4.95;;;14.70;99.90;;;;;;5052489;28;20036;-69
2022/06/13 00:21:26;;;;;;;15.88;5.63;;;14.60;99.90;;;;;;5037282;28;20124;-69
2022/06/13 00:23:51;;;;;;;13.85;5.55;;;14.70;99.90;;;;;;5037462;28;20482;-69
2022/06/13 00:26:21;;;;;;;16.95;4.85;;;14.70;99.90;;;;;;5055043;28;20094;-69
2022/06/13 00:28:48;;;;;;;16.20;5.20;;;14.80;99.90;;;;;;5054715;28;20041;-68
2022/06/13 00:31:14;;;;;;;13.50;5.50;;;14.70;99.90;;;;;;5036378;28;20032;-69
2022/06/13 00:33:39;;;;;;;17.95;6.25;;;14.90;99.90;;;;;;5037157;28;20490;-70
2022/06/13 00:36:06;;;;;;;14.70;5.63;;;15.50;99.90;;;;;;5054816;28;20128;-68
2022/06/13 00:38:31;;;;;;;13.98;5.55;;;14.70;99.90;;;;;;5054763;28;20388;-68
2022/06/13 00:40:57;;;;;;;11.98;5.72;;;14.70;99.90;;;;;;5036207;28;20048;-68
2022/06/13 00:43:23;;;;;;;13.80;5.95;;;14.70;99.90;;;;;;5036955;28;20036;-69
2022/06/13 00:45:49;;;;;;;17.48;6.97;;;15.50;99.90;;;;;;5054531;28;20041;-68
2022/06/13 00:48:20;;;;;;;18.25;6.05;;;15.10;99.90;;;;;;5036143;28;20080;-69
2022/06/13 00:50:55;;;;;;;16.70;6.25;;;14.50;99.90;;;;;;5053938;28;20079;-68
2022/06/13 00:53:28;;;;;;;20.27;7.15;;;14.60;99.90;;;;;;5054242;28;20036;-69
2022/06/13 00:56:23;;;;;;;20.23;6.68;;;14.60;99.90;;;;;;5019961;28;20047;-69
2022/06/13 00:58:59;;;;;;;19.60;6.50;;;14.50;99.90;;;;;;5051102;28;20133;-69
2022/06/13 01:01:28;;;;;;;14.75;6.03;;;14.70;99.90;;;;;;5054164;28;20037;-69
2022/06/13 01:03:54;;;;;;;19.25;7.15;;;14.70;99.90;;;;;;5036780;28;20453;-69
2022/06/13 01:06:21;;;;;;;16.52;6.53;;;15.60;99.90;;;;;;5019969;28;20391;-68
2022/06/13 01:08:47;;;;;;;18.73;6.88;;;14.50;99.90;;;;;;5054170;28;20048;-68
2022/06/13 01:11:22;;;;;;;25.13;7.90;;;14.70;99.90;;;;;;5035855;28;20459;-68
2022/06/13 01:14:07;;;;;;;20.98;6.95;;;14.40;99.90;;;;;;5036382;28;20041;-68
2022/06/13 01:16:36;;;;;;;20.20;7.55;;;14.40;99.90;;;;;;5036054;28;20033;-68
2022/06/13 01:19:07;;;;;;;19.73;7.60;;;14.70;99.90;;;;;;5019413;28;20052;-69
2022/06/13 01:21:38;;;;;;;21.35;8.85;;;14.50;99.90;;;;;;5019443;28;20483;-68
2022/06/13 01:24:13;;;;;;;20.85;7.32;;;14.80;99.90;;;;;;5053910;28;20467;-69
2022/06/13 01:26:53;;;;;;;19.77;6.95;;;14.60;99.90;;;;;;5053707;28;20395;-68
2022/06/13 01:29:46;;;;;;;19.50;7.30;;;14.70;99.90;;;;;;5053258;28;20072;-69
2022/06/13 01:32:40;;;;;;;17.88;6.50;;;14.30;99.90;;;;;;5035586;28;20033;-68
2022/06/13 01:35:17;;;;;;;18.30;6.93;;;14.50;99.90;;;;;;5035896;28;20033;-68
2022/06/13 01:38:00;;;;;;;16.85;6.40;;;14.40;99.90;;;;;;5035726;28;20094;-69
2022/06/13 01:40:39;;;;;;;23.27;7.20;;;14.60;99.90;;;;;;5053070;28;20045;-69
2022/06/13 01:43:17;;;;;;;14.73;6.22;;;14.40;99.90;;;;;;5053523;28;20274;-69
2022/06/13 01:45:50;;;;;;;17.08;7.15;;;14.40;99.90;;;;;;5053458;28;20566;-68
2022/06/13 01:48:19;;;;;;;;;;;14.50;99.90;;;;;;5054639;28;20612;-68
2022/06/13 01:50:53;;;;;;;16.90;7.72;;;14.40;99.90;;;;;;5034692;28;20338;-68
2022/06/13 01:53:44;;;;;;;21.60;8.73;;;14.50;99.90;;;;;;5053201;28;20032;-68
2022/06/13 01:56:13;;;;;;;21.23;7.80;;;14.40;99.90;;;;;;5035163;28;20044;-68
2022/06/13 01:58:56;;;;;;;18.17;7.20;;;14.60;99.90;;;;;;5035013;28;20037;-68
2022/06/13 02:01:32;;;;;;;23.27;7.53;;;14.40;99.90;;;;;;5034816;28;20044;-68
2022/06/13 02:04:09;;;;;;;27.33;8.38;;;14.50;99.90;;;;;;5053222;28;20048;-68
2022/06/13 02:06:40;;;;;;;17.52;6.85;;;14.50;99.90;;;;;;5035075;28;20040;-68
2022/06/13 02:09:15;;;;;;;14.10;7.03;;;14.60;99.90;;;;;;5034563;28;20037;-69
2022/06/13 02:11:52;;;;;;;16.05;6.30;;;14.60;99.90;;;;;;5035146;28;20119;-68
2022/06/13 02:14:44;;;;;;;18.73;6.45;;;14.50;99.90;;;;;;5034873;28;20029;-68
2022/06/13 02:17:14;;;;;;;18.35;5.63;;;14.40;99.90;;;;;;5035145;28;20099;-68
2022/06/13 02:19:49;;;;;;;17.77;5.38;;;14.40;99.90;;;;;;5017563;28;20086;-68
2022/06/13 02:22:31;;;;;;;14.57;6.50;;;14.70;99.90;;;;;;5052981;28;20037;-68
2022/06/13 02:25:24;;;;;;;12.88;4.32;;;14.30;99.90;;;;;;5034932;28;20048;-68
2022/06/13 02:27:55;;;;;;;12.55;5.50;;;14.50;99.90;;;;;;5044843;28;20056;-68
2022/06/13 02:30:26;;;;;;;15.23;4.93;;;14.50;99.90;;;;;;5033992;28;20035;-68
2022/06/13 02:33:09;;;;;;;11.85;4.45;;;14.70;99.90;;;;;;5052570;28;20494;-68
2022/06/13 02:35:38;;;;;;;;;;;14.60;99.90;;;;;;5033096;28;20033;-68
2022/06/13 02:38:19;;;;;;;14.77;4.68;;;14.50;99.90;;;;;;5032694;28;19999;-68
2022/06/13 02:40:50;;;;;;;10.70;4.45;;;14.50;99.90;;;;;;5030415;28;20052;-68
2022/06/13 02:43:16;;;;;;;15.80;4.70;;;14.50;99.90;;;;;;5032533;28;20044;-68
2022/06/13 02:45:56;;;;;;;11.80;3.75;;;14.40;99.90;;;;;;5014880;28;20033;-68
2022/06/13 02:48:38;;;;;;;10.93;3.13;;;14.30;99.90;;;;;;5030774;28;20116;-68
2022/06/13 02:51:37;;;;;;;9.02;2.95;;;14.40;99.90;;;;;;5013533;28;20037;-68
2022/06/13 02:54:10;;;;;;;9.32;3.67;;;14.40;99.90;;;;;;5025250;28;20108;-69
2022/06/13 03:00:16;;;;;;;11.43;3.33;;;14.40;99.90;;;;;;5051259;28;20045;-68
2022/06/13 03:03:04;;;;;;;9.90;3.47;;;14.40;99.90;;;;;;5052017;28;20120;-69
2022/06/13 03:05:35;;;;;;;10.82;3.78;;;14.40;99.90;;;;;;5034552;28;20275;-68
2022/06/13 03:08:06;;;;;;;10.40;2.88;;;14.50;99.90;;;;;;5033656;28;20040;-68
2022/06/13 03:10:46;;;;;;;9.90;3.05;;;14.40;99.90;;;;;;5017054;28;20040;-68
2022/06/13 03:13:36;;;;;;;9.77;3.10;;;14.40;99.90;;;;;;5034040;28;20110;-68
2022/06/13 03:16:24;;;;;;;6.10;2.70;;;14.50;99.90;;;;;;5034198;28;20464;-68
2022/06/13 03:18:57;;;;;;;10.45;2.70;;;14.40;99.90;;;;;;5033654;28;20045;-70
2022/06/13 03:21:52;;;;;;;11.68;3.88;;;14.20;99.90;;;;;;5017441;28;20508;-68
2022/06/13 03:24:47;;;;;;;8.70;2.60;;;14.40;99.90;;;;;;5014742;28;20057;-68
2022/06/13 03:27:28;;;;;;;6.32;2.53;;;15.50;99.90;;;;;;5033413;28;20102;-68
2022/06/13 03:30:13;;;;;;;9.10;2.55;;;14.30;99.90;;;;;;5032990;28;20029;-68
2022/06/13 03:35:42;;;;;;;8.85;3.20;;;14.30;99.90;;;;;;5051668;28;20037;-68
2022/06/13 03:38:16;;;;;;;7.13;2.78;;;14.20;99.90;;;;;;5051540;28;20075;-68
2022/06/13 03:40:47;;;;;;;9.88;2.88;;;14.30;99.90;;;;;;5051048;28;20044;-68
2022/06/13 03:43:28;;;;;;;6.55;2.33;;;14.30;99.90;;;;;;5051439;28;20040;-69
2022/06/13 03:46:01;;;;;;;4.53;2.08;;;14.00;99.90;;;;;;5017463;28;20421;-68
2022/06/13 03:48:42;;;;;;;9.18;2.22;;;14.10;99.90;;;;;;5051615;28;20077;-69
2022/06/13 03:51:20;;;;;;;6.05;2.00;;;14.40;99.90;;;;;;5016431;28;20082;-68
2022/06/13 03:54:18;;;;;;;7.90;2.50;;;14.30;99.90;;;;;;5052939;28;20033;-69
2022/06/13 03:56:54;;;;;;;7.93;2.05;;;14.40;99.90;;;;;;5036944;28;20132;-68
2022/06/13 03:59:30;;;;;;;3.65;1.63;;;14.20;99.90;;;;;;5036939;28;20080;-68
2022/06/13 04:02:01;;;;;;;6.63;2.53;;;14.30;99.90;;;;;;5037740;28;20496;-68
2022/06/13 04:04:35;;;;;;;6.90;1.95;;;14.30;99.90;;;;;;5055585;28;20090;-68
2022/06/13 04:07:01;;;;;;;;;;;14.40;99.90;;;;;;5055873;28;20045;-68
2022/06/13 04:09:32;;;;;;;6.47;1.80;;;14.20;99.90;;;;;;5054441;28;19920;-68
2022/06/13 04:12:06;;;;;;;5.78;1.80;;;14.30;99.90;;;;;;5037571;28;20033;-68
2022/06/13 04:14:57;;;;;;;11.57;2.47;;;14.20;99.90;;;;;;5055104;28;20029;-68
2022/06/13 04:17:48;;;;;;;5.78;1.92;;;14.20;99.90;;;;;;5037036;28;20032;-68
2022/06/13 04:20:30;;;;;;;8.93;2.33;;;14.20;99.90;;;;;;5036392;28;20037;-68
2022/06/13 04:23:33;;;;;;;7.60;2.17;;;14.30;99.90;;;;;;5054953;28;20560;-69
2022/06/13 04:25:59;;;;;;;8.57;2.63;;;;;;;;;;5036860;28;20539;-68
2022/06/13 04:28:46;;;;;;;10.93;2.88;;;14.30;99.90;;;;;;5036963;28;20127;-68
2022/06/13 04:31:13;;;;;;;9.32;2.17;;;14.30;99.90;;;;;;5054280;28;20033;-68
2022/06/13 04:33:45;;;;;;;6.50;2.58;;;14.40;99.90;;;;;;5020374;28;20075;-68
2022/06/13 04:36:13;;;;;;;9.68;2.30;;;14.50;99.90;;;;;;5036585;28;20479;-69
2022/06/13 04:38:46;;;;;;;7.70;2.40;;;14.40;99.90;;;;;;5036776;28;20056;-68
2022/06/13 04:41:14;;;;;;;8.65;2.15;;;14.40;99.90;;;;;;5054416;28;20051;-68
2022/06/13 04:43:44;;;;;;;6.78;2.53;;;14.30;99.90;;;;;;5054719;28;20486;-68
2022/06/13 04:46:19;;;;;;;5.88;2.13;;;13.90;99.90;;;;;;5036503;28;20486;-68
2022/06/13 04:48:47;;;;;;;9.52;2.75;;;13.60;99.90;;;;;;5020127;28;20044;-68
2022/06/13 04:51:44;;;;;;;7.35;3.22;;;13.40;99.90;;;;;;5053454;28;20029;-68
2022/06/13 04:54:17;;;;;;;7.32;2.25;;;13.40;99.90;;;;;;5031857;28;20416;-69
2022/06/13 04:56:43;;;;;;;5.95;1.45;;;13.50;99.90;;;;;;5054428;28;20036;-68
2022/06/13 04:59:13;;;;;;;3.67;1.20;;;13.30;99.90;;;;;;5035827;28;20029;-68
2022/06/13 05:01:48;;;;;;;9.55;1.55;;;13.40;99.90;;;;;;5054277;28;20039;-68
2022/06/13 05:04:17;;;;;;;5.65;1.73;;;13.50;99.90;;;;;;5054078;28;20478;-68
2022/06/13 05:06:54;;;;;;;8.07;1.90;;;13.60;99.90;;;;;;5035433;28;20434;-68
2022/06/13 05:09:36;;;;;;;7.18;1.58;;;13.60;99.90;;;;;;5035567;28;20051;-68
2022/06/13 05:12:15;;;;;;;6.22;1.30;;;13.80;99.90;;;;;;5036223;28;20032;-68
2022/06/13 05:14:59;;;;;;;6.28;2.03;;;13.80;99.90;;;;;;5054471;28;20033;-68
2022/06/13 05:17:53;;;;;;;4.47;1.75;;;14.00;99.90;;;;;;5035944;28;20029;-68
2022/06/13 05:20:46;;;;;;;4.55;1.70;;;14.00;99.90;;;;;;5035534;28;20067;-68
2022/06/13 05:23:27;;;;;;;6.28;1.85;;;14.30;99.90;;;;;;5019504;28;20037;-68
2022/06/13 05:25:57;;;;;;;5.88;1.60;;;14.30;99.90;;;;;;5053506;28;20037;-68
2022/06/13 05:28:26;;;;;;;6.95;1.75;;;14.30;99.90;;;;;;5035789;28;20091;-68
2022/06/13 05:30:54;;;;;;;4.50;1.60;;;14.30;99.90;;;;;;5052876;28;20548;-68
2022/06/13 05:33:26;;;;;;;7.50;1.70;;;14.60;99.90;;;;;;5035982;28;20071;-69
2022/06/13 05:35:54;;;;;;;7.70;1.73;;;14.80;99.90;;;;;;5035881;28;20041;-68
2022/06/13 05:38:31;;;;;;;7.35;2.65;;;14.90;99.90;;;;;;5035602;28;20045;-68
2022/06/13 05:40:57;;;;;;;14.70;2.40;;;;;;;;;;5052930;28;20392;-68
2022/06/13 05:43:23;;;;;;;15.25;3.38;;;14.90;99.90;;;;;;5035813;28;20472;-68
2022/06/13 05:45:49;;;;;;;3.88;1.60;;;15.20;99.90;;;;;;5053139;28;20071;-68
2022/06/13 05:48:17;;;;;;;6.43;1.60;;;15.10;99.90;;;;;;5035330;28;20033;-68
2022/06/13 05:50:43;;;;;;;11.85;2.10;;;15.00;99.90;;;;;;5052341;28;20029;-67
2022/06/13 05:53:14;;;;;;;4.68;1.40;;;15.30;99.90;;;;;;5035309;28;20040;-69
2022/06/13 05:55:40;;;;;;;8.10;1.90;;;15.60;99.90;;;;;;5035631;28;20036;-68
2022/06/13 05:58:06;;;;;;;12.48;2.47;;;;;;;;;;5035185;28;20588;-69
2022/06/13 06:00:57;;;;;;;5.55;1.42;;;15.30;99.90;;;;;;5034625;28;20047;-68
2022/06/13 06:03:23;;;;;;;6.40;1.65;;;15.20;99.90;;;;;;5018578;28;20040;-68
2022/06/13 06:05:53;;;;;;;6.20;2.40;;;15.10;99.90;;;;;;5015287;28;20044;-68
2022/06/13 06:08:26;;;;;;;9.43;1.65;;;15.10;99.90;;;;;;5031377;28;20037;-68
2022/06/13 06:10:53;;;;;;;;;;;15.20;99.90;;;;;;5028471;28;20037;-68
2022/06/13 06:13:19;;;;;;;3.08;1.58;;;13.60;99.90;;;;;;5024939;28;19932;-68
2022/06/13 06:15:46;;;;;;;3.28;1.40;;;;;;;;;;5038944;28;20118;-69
2022/06/13 06:18:12;;;;;;;10.35;1.45;;;14.50;99.90;;;;;;5048460;28;20086;-68
2022/06/13 06:20:39;;;;;;;2.75;1.23;;;14.50;99.90;;;;;;5032904;28;20128;-69
2022/06/13 06:23:06;;;;;;;4.25;1.20;;;14.50;99.90;;;;;;5048777;28;20112;-68
2022/06/13 06:25:32;;;;;;;8.68;1.85;;;;;;;;;;5036948;28;20044;-67
2022/06/13 06:27:57;;;;;;;8.25;1.65;;;14.80;99.90;;;;;;5035352;28;20063;-69
2022/06/13 06:30:27;;;;;;;3.13;1.60;;;;;;;;;;5034361;28;20479;-69
2022/06/13 06:32:56;;;;;;;7.75;1.75;;;14.70;99.90;;;;;;5045651;28;20094;-68
2022/06/13 06:35:29;;;;;;;5.00;1.45;;;15.00;99.90;;;;;;5043232;28;20098;-67
2022/06/13 06:37:59;;;;;;;3.92;1.42;;;;;;;;;;5038245;28;20495;-68
2022/06/13 06:40:26;;;;;;;4.05;2.03;;;15.50;99.90;;;;;;5024990;28;20095;-69
2022/06/13 06:42:52;;;;;;;7.95;1.65;;;15.50;99.90;;;;;;5038860;28;20045;-69
2022/06/13 06:45:18;;;;;;;8.50;1.65;;;;;;;;;;5048068;28;20499;-70
2022/06/13 06:47:44;;;;;;;3.55;1.50;;;15.70;99.90;;;;;;5019394;28;20036;-68
2022/06/13 06:50:19;;;;;;;7.30;1.98;;;15.50;99.90;;;;;;5022670;28;20095;-69
2022/06/13 06:52:45;;;;;;;6.85;1.63;;;15.50;99.90;;;;;;5023748;28;20033;-67
2022/06/13 07:00:46;;;;;;;9.43;1.70;;;16.20;99.90;;;;;;5050795;28;20051;-69
2022/06/13 07:03:12;;;;;;;6.97;1.63;;;16.50;99.90;;;;;;5017321;28;20441;-68
2022/06/13 07:05:38;;;;;;;11.68;1.92;;;16.60;99.90;;;;;;5033919;28;20483;-68
2022/06/13 07:08:04;;;;;;;11.68;1.85;;;16.40;99.90;;;;;;5017385;28;20513;-69
2022/06/13 07:10:30;;;;;;;6.55;1.92;;;16.30;99.90;;;;;;5033143;28;20041;-69
2022/06/13 07:12:56;;;;;;;10.00;1.73;;;16.00;99.90;;;;;;5017237;28;20040;-68
2022/06/13 07:15:22;;;;;;;5.60;1.17;;;15.80;99.90;;;;;;5030276;28;20415;-68
2022/06/13 07:17:48;;;;;;;7.10;1.17;;;15.80;99.90;;;;;;5033038;28;20080;-68
2022/06/13 07:20:14;;;;;;;7.20;1.73;;;16.40;99.90;;;;;;5033169;28;20043;-69
2022/06/13 07:22:49;;;;;;;5.20;1.35;;;16.30;99.90;;;;;;5032196;28;20033;-68
2022/06/13 07:25:26;;;;;;;8.55;1.70;;;16.30;99.90;;;;;;5017239;28;20033;-69
2022/06/13 07:27:52;;;;;;;6.30;1.38;;;15.70;99.90;;;;;;5016630;28;20131;-68
2022/06/13 07:30:21;;;;;;;8.63;1.50;;;16.10;99.90;;;;;;5014874;28;20041;-70
2022/06/13 07:32:48;;;;;;;9.00;2.15;;;16.40;99.90;;;;;;5033699;28;20108;-69
2022/06/13 07:35:16;;;;;;;6.97;1.92;;;16.60;99.90;;;;;;5051634;28;20052;-69
2022/06/13 07:40:28;;;;;;;6.45;1.25;;;17.50;99.90;;;;;;5025891;28;20041;-69
2022/06/13 07:42:56;;;;;;;9.95;1.42;;;16.40;99.90;;;;;;5033413;28;20574;-68
2022/06/13 07:45:24;;;;;;;5.63;1.25;;;16.30;99.90;;;;;;5033224;28;20076;-69
2022/06/13 07:47:52;;;;;;;6.20;1.27;;;16.10;99.90;;;;;;5001671;28;20079;-69
2022/06/13 07:50:20;;;;;;;5.43;1.55;;;16.60;99.90;;;;;;5032775;28;20047;-69
2022/06/13 07:52:47;;;;;;;4.60;1.42;;;16.80;99.90;;;;;;5033045;28;20554;-69
2022/06/13 07:55:13;;;;;;;7.57;1.70;;;16.30;99.90;;;;;;5033299;28;20033;-69
2022/06/13 07:57:39;;;;;;;5.00;1.35;;;16.20;99.90;;;;;;5016933;28;20040;-69
2022/06/13 08:00:07;;;;;;;6.97;1.10;;;16.50;99.90;;;;;;5015878;28;20558;-69
2022/06/13 08:02:35;;;;;;;6.78;1.33;;;16.10;99.90;;;;;;5033386;28;20120;-69
2022/06/13 08:05:00;;;;;;;4.57;1.73;;;16.60;99.90;;;;;;5051276;28;20076;-69
2022/06/13 08:07:26;;;;;;;22.02;3.25;;;16.90;99.90;;;;;;5033189;28;20072;-68
2022/06/13 08:09:52;;;;;;;7.40;1.40;;;17.00;99.90;;;;;;5031223;28;20071;-68
2022/06/13 08:12:19;;;;;;;8.00;1.45;;;16.20;99.90;;;;;;5030074;28;20037;-69
2022/06/13 08:14:48;;;;;;;4.30;1.58;;;16.20;99.90;;;;;;5030061;28;20125;-68
2022/06/13 08:17:19;;;;;;;8.05;1.35;;;16.60;99.90;;;;;;5013157;28;20041;-68
2022/06/13 08:19:46;;;;;;;6.05;1.60;;;17.30;99.90;;;;;;5029069;28;20088;-69
2022/06/13 08:22:14;;;;;;;7.82;2.10;;;17.10;99.90;;;;;;5016810;28;20127;-69
2022/06/13 08:24:40;;;;;;;8.77;2.20;;;17.10;99.90;;;;;;5016385;28;20471;-69
2022/06/13 08:27:06;;;;;;;6.55;1.85;;;17.20;99.90;;;;;;5012700;28;20376;-69
2022/06/13 08:29:32;;;;;;;6.75;1.13;;;17.30;99.90;;;;;;5012274;28;20049;-68
2022/06/13 08:31:59;;;;;;;5.18;1.30;;;16.90;99.90;;;;;;5016414;28;20082;-69
2022/06/13 08:34:25;;;;;;;7.28;1.55;;;16.70;99.90;;;;;;5033222;28;20040;-69
2022/06/13 08:36:52;;;;;;;7.72;1.77;;;16.60;99.90;;;;;;5016192;28;20072;-69
2022/06/13 08:39:18;;;;;;;8.57;1.45;;;17.10;99.90;;;;;;5032637;28;20099;-69
2022/06/13 08:42:07;;;;;;;3.80;1.70;;;17.20;99.90;;;;;;5036369;28;20506;-69
2022/06/13 08:44:43;;;;;;;7.00;1.30;;;17.10;99.90;;;;;;5019908;28;20103;-68
2022/06/13 08:47:20;;;;;;;11.73;1.40;;;17.40;99.90;;;;;;5019811;28;20045;-69
2022/06/13 08:50:19;;;;;;;10.85;2.10;;;17.10;99.90;;;;;;5013875;28;20041;-69
2022/06/13 08:53:06;;;;;;;9.63;1.40;;;16.80;99.90;;;;;;5015159;28;20042;-69
2022/06/13 08:56:07;;;;;;;6.97;1.60;;;17.30;99.90;;;;;;5014729;28;20117;-68
2022/06/13 08:58:55;;;;;;;9.65;1.10;;;17.00;99.90;;;;;;4995177;28;20052;-69
2022/06/13 09:01:34;;;;;;;8.38;1.92;;;16.90;99.90;;;;;;4999876;28;20403;-69
2022/06/13 09:04:28;;;;;;;4.72;1.35;;;17.80;99.90;;;;;;5000257;28;20403;-69
2022/06/13 09:07:13;;;;;;;9.60;1.80;;;18.00;99.90;;;;;;4999756;28;20124;-70
2022/06/13 09:09:53;;;;;;;8.98;1.98;;;17.90;99.90;;;;;;4999001;28;20041;-69
2022/06/13 09:12:28;;;;;;;8.38;1.50;;;17.00;99.90;;;;;;4999996;28;20455;-69
2022/06/13 09:15:18;;;;;;;9.00;1.73;;;17.50;99.90;;;;;;4999844;28;20068;-69
2022/06/13 09:18:01;;;;;;;5.43;1.60;;;18.20;99.90;;;;;;4999905;28;20056;-69
2022/06/13 09:20:58;;;;;;;9.35;1.40;;;18.40;99.90;;;;;;4999269;28;20037;-70
2022/06/13 09:23:59;;;;;;;5.35;1.73;;;18.30;99.90;;;;;;4976490;28;20045;-69
2022/06/13 09:26:32;;;;;;;10.07;1.20;;;17.80;99.90;;;;;;4991582;28;20589;-69
2022/06/13 09:29:04;;;;;;;10.52;1.90;;;17.60;99.90;;;;;;5018265;28;20043;-69
2022/06/13 09:31:43;;;;;;;8.38;1.58;;;17.20;99.90;;;;;;5035571;28;20034;-69
2022/06/13 09:34:25;;;;;;;7.38;1.75;;;17.80;99.90;;;;;;5019280;28;20055;-69
2022/06/13 09:37:06;;;;;;;6.20;1.58;;;18.10;99.90;;;;;;5018707;28;20461;-68
2022/06/13 09:39:32;;;;;;;6.30;1.30;;;18.00;99.90;;;;;;5018060;28;20567;-69
2022/06/13 09:42:06;;;;;;;11.43;2.42;;;18.00;99.90;;;;;;5035464;28;20029;-69
2022/06/13 09:44:41;;;;;;;8.20;1.52;;;17.60;99.90;;;;;;5018890;28;20047;-68
2022/06/13 09:47:37;;;;;;;8.00;1.85;;;17.20;99.90;;;;;;5035312;28;20047;-69
2022/06/13 09:50:36;;;;;;;8.57;2.05;;;16.80;99.90;;;;;;5018013;28;20120;-69
2022/06/13 09:53:28;;;;;;;9.43;1.75;;;16.70;99.90;;;;;;5034891;28;20199;-69
2022/06/13 09:56:00;;;;;;;9.73;2.40;;;16.60;99.90;;;;;;5018676;28;20052;-69
2022/06/13 09:59:00;;;;;;;10.30;2.97;;;16.80;99.90;;;;;;5035406;28;20120;-69
2022/06/13 10:01:43;;;;;;;8.40;1.40;;;17.00;99.90;;;;;;5011530;28;20053;-69
2022/06/13 10:04:15;;;;;;;9.70;1.92;;;17.00;99.90;;;;;;5031966;28;20044;-69
2022/06/13 10:06:42;;;;;;;8.23;2.20;;;17.20;99.90;;;;;;5012517;28;20038;-69
2022/06/13 10:09:39;;;;;;;7.25;2.30;;;17.10;99.90;;;;;;5014437;28;20044;-69
2022/06/13 10:12:30;;;;;;;9.05;1.60;;;17.00;99.90;;;;;;5032486;28;20042;-69
2022/06/13 10:15:17;;;;;;;6.60;1.63;;;17.10;99.90;;;;;;5022844;28;20033;-69
2022/06/13 10:17:55;;;;;;;6.95;2.10;;;17.50;99.90;;;;;;5037858;28;20478;-71
2022/06/13 10:20:41;;;;;;;9.52;2.38;;;17.50;99.90;;;;;;5036670;28;20135;-68
2022/06/13 10:23:21;;;;;;;9.13;2.10;;;16.50;99.90;;;;;;5049244;28;20032;-70
2022/06/13 10:26:04;;;;;;;8.48;1.67;;;15.60;99.90;;;;;;5036738;28;20037;-69
2022/06/13 10:28:51;;;;;;;13.40;3.50;;;15.30;99.90;;;;;;5021621;28;20473;-70
2022/06/13 10:31:46;;;;;;;8.32;1.88;;;15.30;99.90;;;;;;5034364;28;20047;-69
2022/06/13 10:34:18;;;;;;;14.43;2.13;;;15.50;99.90;;;;;;5013813;28;20029;-69
2022/06/13 10:37:13;;;;;;;7.50;2.22;;;15.60;99.90;;;;;;5020731;28;20041;-69
2022/06/13 10:39:40;;;;;;;15.55;2.67;;;15.50;99.90;;;;;;5030419;28;20068;-69
2022/06/13 10:42:14;;;;;;;10.15;2.10;;;15.90;99.90;;;;;;5040574;28;20047;-70
2022/06/13 10:44:40;;;;;;;11.98;3.17;;;15.70;99.90;;;;;;5014831;28;20414;-69
2022/06/13 10:47:32;;;;;;;13.25;2.88;;;15.60;99.90;;;;;;5036269;28;20478;-68
2022/06/13 10:50:08;;;;;;;8.18;1.63;;;15.70;99.90;;;;;;5036683;28;20040;-68
2022/06/13 10:52:40;;;;;;;12.85;3.60;;;15.80;99.90;;;;;;5043457;28;20529;-69
2022/06/13 10:55:09;;;;;;;10.65;1.92;;;17.10;99.90;;;;;;5047515;28;20544;-69
2022/06/13 10:58:11;;;;;;;7.80;1.85;;;16.30;99.90;;;;;;5022325;28;20029;-70
2022/06/13 11:00:37;;;;;;;10.10;1.90;;;16.60;99.90;;;;;;5059387;28;20033;-70
2022/06/13 11:03:15;;;;;;;14.07;2.97;;;17.80;99.90;;;;;;5019336;28;20032;-68
2022/06/13 11:06:15;;;;;;;12.07;3.83;;;17.40;99.90;;;;;;5032401;28;20041;-69
2022/06/13 11:08:41;;;;;;;10.13;2.30;;;18.00;99.90;;;;;;5049046;28;20025;-69
2022/06/13 11:11:17;;;;;;;10.18;3.55;;;17.70;99.90;;;;;;5015233;28;20032;-69
2022/06/13 11:13:53;;;;;;;9.20;2.17;;;17.00;99.90;;;;;;5050033;28;20075;-69
2022/06/13 11:24:49;;;;;;;6.55;1.67;;;18.20;99.90;;;;;;5035424;28;20048;-69
2022/06/13 11:27:40;;;;;;;7.10;1.90;;;18.20;99.90;;;;;;5046992;28;20087;-69
2022/06/13 11:30:27;;;;;;;5.10;1.60;;;17.30;99.90;;;;;;5060687;28;20060;-69
2022/06/13 11:33:04;;;;;;;9.23;2.17;;;17.40;99.90;;;;;;5038185;28;20064;-69
2022/06/13 11:35:36;;;;;;;5.55;1.33;;;17.20;99.90;;;;;;5042447;28;20078;-69
2022/06/13 11:38:32;;;;;;;9.80;2.08;;;16.90;99.90;;;;;;5041220;28;20444;-69
2022/06/13 11:41:13;;;;;;;10.10;2.35;;;16.80;99.90;;;;;;5054906;28;20057;-69
2022/06/13 11:43:42;;;;;;;30.90;4.60;;;16.70;99.90;;;;;;5036626;28;20482;-69
2022/06/13 11:46:36;;;;;;;11.15;2.53;;;16.90;99.90;;;;;;5041157;28;20086;-70
2022/06/13 11:49:14;;;;;;;8.60;2.17;;;17.20;99.90;;;;;;5038727;28;20040;-69
2022/06/13 11:51:58;;;;;;;12.63;1.77;;;17.00;99.90;;;;;;5036580;28;20048;-69
2022/06/13 11:54:55;;;;;;;6.03;1.70;;;17.40;99.90;;;;;;5014939;28;20484;-68
2022/06/13 11:57:35;;;;;;;14.23;2.45;;;17.70;99.90;;;;;;5025736;28;20561;-69
2022/06/13 12:00:04;;;;;;;10.25;2.42;;;17.90;99.90;;;;;;5042088;28;20070;-69
2022/06/13 12:02:39;;;;;;;13.75;2.10;;;17.80;99.90;;;;;;5018153;28;20036;-68
2022/06/13 12:05:22;;;;;;;5.28;1.70;;;18.10;99.90;;;;;;5056769;28;20037;-69
2022/06/13 12:07:53;;;;;;;;;;;17.80;99.90;;;;;;5038602;28;20048;-68
2022/06/13 12:10:23;;;;;;;9.98;1.40;;;17.30;99.90;;;;;;5038137;28;19917;-69
2022/06/13 12:12:48;;;;;;;7.75;1.60;;;18.20;99.90;;;;;;5043575;28;20516;-69
2022/06/13 12:15:15;;;;;;;5.15;1.60;;;18.70;99.90;;;;;;5028049;28;20044;-69
2022/06/13 12:18:05;;;;;;;7.30;1.88;;;17.10;99.90;;;;;;5041329;28;20498;-69
2022/06/13 12:20:37;;;;;;;8.32;1.48;;;17.20;99.90;;;;;;5035208;28;20044;-68
2022/06/13 12:23:11;;;;;;;10.00;2.97;;;17.30;99.90;;;;;;5042086;28;20377;-69
2022/06/13 12:25:56;;;;;;;5.97;1.30;;;17.70;99.90;;;;;;5041027;28;20515;-69
2022/06/13 12:28:26;;;;;;;6.93;1.58;;;18.10;99.90;;;;;;5050807;28;20122;-69
2022/06/13 12:31:10;;;;;;;7.22;1.52;;;18.30;99.90;;;;;;5043560;28;20041;-69
2022/06/13 12:33:53;;;;;;;9.45;1.77;;;18.60;99.90;;;;;;5042734;28;20044;-69
2022/06/13 12:36:33;;;;;;;11.23;3.33;;;18.60;99.90;;;;;;5061245;28;20552;-69
2022/06/13 12:39:41;;;;;;;13.43;2.35;;;18.40;99.90;;;;;;5050796;28;20394;-69
2022/06/13 12:42:06;;;;;;;9.00;2.90;;;17.80;99.90;;;;;;5038606;28;20363;-69
2022/06/13 12:45:06;;;;;;;7.75;2.95;;;18.60;99.90;;;;;;5060785;28;20044;-69
2022/06/13 12:48:05;;;;;;;10.63;1.90;;;18.20;99.90;;;;;;5048410;28;20430;-69
2022/06/13 12:51:03;;;;;;;8.50;1.50;;;18.30;99.90;;;;;;5044529;28;20041;-69
2022/06/13 12:54:00;;;;;;;6.05;1.38;;;18.00;99.90;;;;;;5024477;28;20040;-69
2022/06/13 12:56:50;;;;;;;7.20;1.65;;;17.70;99.90;;;;;;5051403;28;20095;-69
2022/06/13 12:59:40;;;;;;;6.55;1.50;;;17.60;99.90;;;;;;5045649;28;20048;-68
2022/06/13 13:02:38;;;;;;;6.78;1.77;;;17.50;99.90;;;;;;5042093;28;20037;-69
2022/06/13 13:05:22;;;;;;;7.63;1.73;;;17.90;99.90;;;;;;5023956;28;20043;-69
2022/06/13 13:08:00;;;;;;;7.60;1.73;;;18.10;99.90;;;;;;5039226;28;20555;-69
2022/06/13 13:10:33;;;;;;;12.48;2.40;;;18.10;99.90;;;;;;5069919;28;20371;-69
2022/06/13 13:13:08;;;;;;;;;;;17.00;99.90;;;;;;5041534;28;20091;-69
2022/06/13 13:15:41;;;;;;;9.52;2.05;;;17.90;99.90;;;;;;5059821;28;19924;-69
2022/06/13 13:18:26;;;;;;;13.10;2.08;;;17.70;99.90;;;;;;5043626;28;20033;-69
2022/06/13 13:21:00;;;;;;;7.18;1.70;;;18.80;99.90;;;;;;5045371;28;20040;-69
2022/06/13 13:24:03;;;;;;;4.95;1.48;;;17.60;99.90;;;;;;5064750;28;20047;-69
2022/06/13 13:26:31;;;;;;;8.55;1.92;;;17.50;99.90;;;;;;5018690;28;20057;-69
2022/06/13 13:29:22;;;;;;;7.80;2.30;;;17.50;99.90;;;;;;5046680;28;20032;-69
2022/06/13 13:32:01;;;;;;;8.82;2.35;;;17.80;99.90;;;;;;5043363;28;20044;-69
2022/06/13 13:34:33;;;;;;;8.27;1.65;;;17.90;99.90;;;;;;5044881;28;20040;-69
2022/06/13 13:37:41;;;;;;;12.05;2.03;;;17.40;99.90;;;;;;5041645;28;20601;-69
2022/06/13 13:40:24;;;;;;;5.82;1.90;;;17.20;99.90;;;;;;5031833;28;20036;-69
2022/06/13 13:43:32;;;;;;;9.43;1.75;;;17.30;99.90;;;;;;5066455;28;20037;-70
2022/06/13 13:46:21;;;;;;;9.18;1.98;;;17.50;99.90;;;;;;5036747;28;20041;-69
2022/06/13 13:49:02;;;;;;;10.05;2.08;;;17.30;99.90;;;;;;5049062;28;20129;-69
2022/06/13 13:51:38;;;;;;;6.97;2.30;;;17.50;99.90;;;;;;5058195;28;20043;-69
2022/06/13 13:54:24;;;;;;;5.38;1.70;;;18.50;99.90;;;;;;5020294;28;20108;-70
2022/06/13 13:56:57;;;;;;;7.72;2.10;;;17.90;99.90;;;;;;5028397;28;20029;-69
2022/06/13 13:59:33;;;;;;;8.52;3.53;;;18.20;99.90;;;;;;5029853;28;20056;-69